»·PEaware :: N797TC KCMA-KSNA

N797TC :: KCMA-KSNA

FLIGHT INFORMATION

Flight Status: Arrived
Operator: Privately registered:
United States
More flights under this callsign
Pilot: Thomas C. (32772)
Aircraft: Unknown
(EPIC)
More flights by this aircraft type
Origin: KCMA Camarillo
United States
Destination: KSNA John Wayne-Orange Co
United States
More flights between these airports :: More routes between these airports
Route:
File this flight plan on PilotEdge
Remarks:
Altitude:
(Current/Filed)
5,500ft
Speed:
(Current/Filed)
325kts
Departed: 31-Dec-20 12:39 PM
Arrived: 31-Dec-20 01:18 PM
Distance/Time
Traveled:
69nm/0:39
Distance/Time
To Go:
Arrived

Flight Plot

Page will automatically refresh every two minutes.


Map Options




Map Legend


Flown Route
Filed Route
Departure Airport
Arrival Airport
Navaid (VOR, NDB)
Fix

Horizontal Profiles

Position Reports

Time Latitude Longitude Heading Altitude Ground
Speed
31-Dec-20 12:23 34.210350 -119.076482 90 79ft 0kts
31-Dec-20 12:24 34.210350 -119.076482 90 79ft 0kts
31-Dec-20 12:25 34.210350 -119.076482 90 79ft 0kts
31-Dec-20 12:26 34.210350 -119.076482 90 79ft 0kts
31-Dec-20 12:27 34.210350 -119.076482 90 79ft 0kts
31-Dec-20 12:28 34.210350 -119.076482 90 79ft 0kts
31-Dec-20 12:29 34.210350 -119.076482 90 79ft 0kts
31-Dec-20 12:30 34.210350 -119.076482 90 79ft 0kts
31-Dec-20 12:31 34.210350 -119.076482 90 79ft 0kts
31-Dec-20 12:32 34.210350 -119.076482 90 79ft 0kts
31-Dec-20 12:33 34.210350 -119.076482 90 79ft 0kts
31-Dec-20 12:34 34.210841 -119.077201 271 79ft 17kts
31-Dec-20 12:35 34.211277 -119.081538 271 76ft 14kts
31-Dec-20 12:36 34.212797 -119.084622 0 75ft 3kts
31-Dec-20 12:37 34.212821 -119.084622 0 75ft 2kts
31-Dec-20 12:38 34.213550 -119.097105 269 338ft 129kts
31-Dec-20 12:39 34.201039 -119.138613 169 1801ft 145kts
31-Dec-20 12:40 34.191989 -119.094829 86 3446ft 149kts
31-Dec-20 12:41 34.188459 -119.044417 86 5467ft 162kts
31-Dec-20 12:42 34.184172 -118.987783 87 5517ft 172kts
31-Dec-20 12:44 34.180561 -118.931927 86 5513ft 164kts
31-Dec-20 12:45 34.177599 -118.878662 86 5510ft 156kts
31-Dec-20 12:46 34.175146 -118.828933 86 5510ft 145kts
31-Dec-20 12:47 34.173225 -118.781247 86 5508ft 142kts
31-Dec-20 12:48 34.171496 -118.734566 86 5506ft 139kts
31-Dec-20 12:49 34.169904 -118.688480 86 5503ft 137kts
31-Dec-20 12:50 34.168526 -118.642903 86 5500ft 136kts
31-Dec-20 12:51 34.167389 -118.597905 86 5469ft 139kts
31-Dec-20 12:52 34.165803 -118.550515 85 5536ft 161kts
31-Dec-20 12:53 34.127905 -118.519168 170 5523ft 211kts
31-Dec-20 12:54 34.069461 -118.497033 162 5507ft 218kts
31-Dec-20 12:55 34.013690 -118.470890 159 5512ft 214kts
31-Dec-20 12:56 33.960385 -118.445060 157 5515ft 200kts
31-Dec-20 12:57 33.913776 -118.413381 131 5521ft 189kts
31-Dec-20 12:58 33.877327 -118.371869 133 5516ft 173kts
31-Dec-20 12:58 33.848391 -118.340154 134 5518ft 165kts
31-Dec-20 13:00 33.809099 -118.297674 134 5521ft 160kts
31-Dec-20 13:01 33.779567 -118.259294 112 5524ft 154kts
31-Dec-20 13:02 33.758600 -118.214017 115 5509ft 154kts
31-Dec-20 13:02 33.740467 -118.176878 115 5503ft 150kts
31-Dec-20 13:03 33.717997 -118.131151 117 4400ft 166kts
31-Dec-20 13:04 33.694574 -118.083707 117 3486ft 144kts
31-Dec-20 13:05 33.674899 -118.043769 117 3713ft 159kts
31-Dec-20 13:06 33.650706 -117.994777 119 3701ft 177kts
31-Dec-20 13:07 33.621323 -117.946786 160 3707ft 181kts
31-Dec-20 13:08 33.580490 -117.961962 257 3675ft 166kts
31-Dec-20 13:09 33.595724 -118.005733 333 3826ft 159kts
31-Dec-20 13:10 33.628670 -117.986291 84 3741ft 179kts
31-Dec-20 13:11 33.648736 -117.932685 60 2070ft 187kts
31-Dec-20 13:12 33.673559 -117.885619 38 686ft 147kts
31-Dec-20 13:13 33.704883 -117.859459 29 610ft 161kts
31-Dec-20 13:14 33.717337 -117.830409 200 777ft 151kts
31-Dec-20 13:15 33.696849 -117.855077 208 441ft 83kts
31-Dec-20 13:16 33.677824 -117.867428 205 59ft 56kts
31-Dec-20 13:17 33.675990 -117.869916 295 59ft 0kts
31-Dec-20 13:18 33.675443 -117.870455 204 59ft 11kts
31-Dec-20 13:19 33.675094 -117.871473 207 59ft 0kts
31-Dec-20 13:20 33.675094 -117.871473 207 59ft 0kts
31-Dec-20 13:21 33.675094 -117.871473 207 59ft 0kts

Navigation Log

Ident Type
Flight plan parsing failed, navigation log unavailable